Alva, Wyoming
Current Conditions -  °F | °C
As of 5:55 PM on Wednesday 17 Dec 2014 (Local Time) from KSPF Reporting Station
Haze Haze  
Wind Chill: -7°   Ceiling: 400
Heat Index: -7°   Visibility: 5mi
Dew Point: -8°   Wind: 0mph
Humidity: 93%   Direction: NA
Pressure: 29.98"   Gusts: NA
Location:  44.69°N, 104.44°W
Report Text: KSPF 180055Z AUTO 00000KT 5SM BR OVC004 M07/M08 A2998 RMK AO2
Loading
Personal Weather Stations






























Interactive Weather Map New forecast layout! Learn more

10-Day Weather Forecast

Advertisements
Track Severe Weather on mobile